Wadsworth, NV (89442)

8:04 PM PST on March 01, 2015 (GMT -0800)
APRSWXNET Fernley NV US | Change Station
CLOSE
Current Station
Personal Weather Station
Location: Fernley, NV
Elevation: 4255 ft
Nearby Weather Stations

Elev 4255 ft 39.60 °N, 119.27 °W | Updated 34 minutes ago

Partly Cloudy
Partly Cloudy
38 °F
Feels Like 34 °F
N
5
Wind Variable Wind from NNW
Gusts 9.0 mph

Today
High -- | Low -- °F
--% Chance of Precip.
Yesterday
High -- | Low -- °F
Precip. -- in
6:30 AM 5:49 PM
Waxing Gibbous, 89% visible
Pressure 29.96 in
Visibility 10.0 miles
Clouds Clear
Windchill 34 °F
Dew Point 26 °F
Humidity 62%
Rainfall 0.00 in
Snow Depth Not available.
UV 0 out of 12
Pollen 4.90 out of 12
Air Quality Not available.
Flu Activity Not available.
METAR KRNO 020355Z 00000KT 10SM CLR 03/M03 A2996 RMK AO2 SLP144 T00331033 $

More Conditions Fewer Conditions

Pressure 29.96 in
Visibility 10.0 miles
Clouds Clear
Windchill 34 °F
Dew Point 26 °F
Humidity 62%
Rainfall 0.00 in
Snow Depth Not available.
UV 0 out of 12
Pollen 4.90 out of 12
Air Quality Not available.
Flu Activity Not available.
METAR KRNO 020355Z 00000KT 10SM CLR 03/M03 A2996 RMK AO2 SLP144 T00331033 $

More Conditions Fewer Conditions

10-Day Weather Forecast

Almanac

Astronomy

Mar. 01, 2015 Rise Set
Actual Time
Civil Twilight
Nautical Twilight
Astronomical Twilight
Moon
Length of Visible Light
Length of Day
Tomorrow will be .
, % of the Moon is Illuminated

Today's Extremes

State Highs State Lows

Community

WunderPhotos

Upload Photos

1,801,722 photos uploaded!

WunderBlogs® & News

Nearby

Air Quality

  Air Quality AQ Index Pollutant
Not available.

Snow Depth

Station Depth Elevation

Earthquake Activity

City Distance Mag. Time & Date
Minimum magnitude displayed is 2.5.

Coastal Water Temperatures

Place Temperature

Nearby Weather Stations